Amber, Iowa
Current Conditions -  °F | °C
As of 10:15 AM on Friday 19 Dec 2014 (Local Time) from KMXO Reporting Station
Overcast Overcast  
Wind Chill: 16°   Ceiling: 6500
Heat Index: 25°   Visibility: 10mi
Dew Point: 21°   Wind: 8mph
Humidity: 86%   Direction: 160°SSE
Pressure: 30.33"   Gusts: NA
Location:  42.1396°N, 91.2844°W
Report Text: KMXO 191615Z AUTO 16007KT 10SM SCT039 OVC065 M04/M06 A3033 RMK AO2
Loading
Personal Weather Stations






























Interactive Weather Map New forecast layout! Learn more

10-Day Weather Forecast

Advertisements
Track Severe Weather on mobile